Time;durP1;ratioP1;P1;durP2;ratioP2;P2;SDS_P1;SDS_P2;PMS_P1;PMS_P2;Temp;Humidity;BMP_temperature;BMP_pressure;BME280_temperature;BME280_humidity;BME280_pressure;Samples;Min_cycle;Max_cycle;Signal;HPM_P1;HPM_P2
2023/04/22 00:00:08;;;;;;;;;;;;;;;13.06;69.67;99214.94;1085873;54;19943;-78
2023/04/22 00:01:12;;;;;;;;;;;;;;;13.07;69.34;99216.59;1086555;46;19977;-78
2023/04/22 00:02:15;;;;;;;;;;;;;;;13.10;69.18;99216.25;1085926;54;19942;-76
2023/04/22 00:03:20;;;;;;;;;;;;;;;13.10;69.17;99219.75;1086110;54;20286;-76
2023/04/22 00:04:22;;;;;;;;;;;;;;;13.15;68.87;99215.69;1086048;54;19975;-75
2023/04/22 00:05:25;;;;;;;;;;;;;;;13.18;68.61;99216.16;1086262;54;19950;-78
2023/04/22 00:06:26;;;;;;;;;;;;;;;13.20;68.46;99219.50;1086144;54;19958;-77
2023/04/22 00:07:30;;;;;;;;;;;;;;;13.23;68.66;99219.13;1085636;54;19953;-78
2023/04/22 00:08:31;;;;;;;;;;;;;;;13.21;68.66;99215.81;1086190;46;19973;-74
2023/04/22 00:09:38;;;;;;;;;;;;;;;13.13;69.41;99223.91;1085852;54;19957;-76
2023/04/22 00:10:39;;;;;;;;;;;;;;;13.01;70.03;99222.69;1086062;54;19943;-75
2023/04/22 00:11:43;;;;;;;;;;;;;;;12.95;70.46;99225.06;1085897;54;19958;-76
2023/04/22 00:12:44;;;;;;;;;;;;;;;12.95;70.34;99222.38;1085998;54;21037;-75
2023/04/22 00:13:48;;;;;;;;;;;;;;;13.02;70.13;99227.06;1086126;54;19950;-75
2023/04/22 00:14:49;;;;;;;;;;;;;;;13.03;70.52;99220.69;1086247;46;19943;-76
2023/04/22 00:15:52;;;;;;;;;;;;;;;13.04;70.55;99214.25;1086228;39;20433;-75
2023/04/22 00:16:53;;;;;;;;;;;;;;;13.08;69.91;99220.94;1086753;39;20381;-75
2023/04/22 00:17:57;;;;;;;;;;;;;;;13.09;70.03;99222.63;1085632;54;19951;-76
2023/04/22 00:18:58;;;;;;;;;;;;;;;13.08;70.20;99216.41;1086199;54;20545;-76
2023/04/22 00:20:03;;;;;;;;;;;;;;;13.08;70.26;99212.91;1085785;54;19957;-75
2023/04/22 00:21:06;;;;;;;;;;;;;;;13.00;71.03;99223.72;1086232;54;19962;-75
2023/04/22 00:22:10;;;;;;;;;;;;;;;12.82;72.04;99221.31;1085729;54;19971;-75
2023/04/22 00:23:11;;;;;;;;;;;;;;;12.73;73.42;99224.06;1085733;54;20358;-77
2023/04/22 00:24:15;;;;;;;;;;;;;;;12.71;73.67;99219.91;1087225;39;20443;-76
2023/04/22 00:25:19;;;;;;;;;;;;;;;12.78;72.53;99226.22;1085814;54;19959;-77
2023/04/22 00:26:22;;;;;;;;;;;;;;;12.84;72.20;99219.31;1085955;54;19976;-76
2023/04/22 00:27:24;;;;;;;;;;;;;;;12.87;72.21;99216.28;1085388;54;19950;-76
2023/04/22 00:28:28;;;;;;;;;;;;;;;12.80;73.30;99214.28;1084905;47;19950;-77
2023/04/22 00:29:29;;;;;;;;;;;;;;;12.78;73.13;99220.84;1085431;54;19950;-76
2023/04/22 00:30:33;;;;;;;;;;;;;;;12.78;73.06;99216.34;1085402;54;19947;-77
2023/04/22 00:31:34;;;;;;;;;;;;;;;12.84;72.40;99213.94;1086378;46;19950;-76
2023/04/22 00:32:38;;;;;;;;;;;;;;;12.84;72.82;99219.31;1084920;54;19950;-80
2023/04/22 00:33:39;;;;;;;;;;;;;;;12.79;73.56;99211.81;1085131;54;19946;-76
2023/04/22 00:34:42;;;;;;;;;;;;;;;12.76;74.02;99217.50;1085038;54;19947;-76
2023/04/22 00:35:45;;;;;;;;;;;;;;;12.72;74.30;99216.22;1085416;54;19977;-77
2023/04/22 00:36:50;;;;;;;;;;;;;;;12.67;74.36;99207.84;1085444;54;19957;-79
2023/04/22 00:37:51;;;;;;;;;;;;;;;12.58;74.54;99221.31;1085529;54;19950;-77
2023/04/22 00:38:55;;;;;;;;;;;;;;;12.53;74.35;99213.00;1085904;39;20218;-78
2023/04/22 00:39:56;;;;;;;;;;;;;;;12.55;73.83;99213.66;1085728;54;19966;-76
2023/04/22 00:41:04;;;;;;;;;;;;;;;12.62;73.16;99211.94;1085610;54;19946;-76
2023/04/22 00:42:05;;;;;;;;;;;;;;;12.63;73.36;99210.91;1085853;54;19957;-76
2023/04/22 00:43:09;;;;;;;;;;;;;;;12.59;73.33;99212.28;1086020;54;19958;-76
2023/04/22 00:44:11;;;;;;;;;;;;;;;12.59;73.53;99211.44;1085682;54;19943;-77
2023/04/22 00:45:17;;;;;;;;;;;;;;;12.57;74.11;99206.25;1086085;54;19950;-76
2023/04/22 00:46:18;;;;;;;;;;;;;;;12.55;73.70;99210.97;1085484;54;20336;-76
2023/04/22 00:47:25;;;;;;;;;;;;;;;12.50;74.35;99202.63;1085157;54;19953;-77
2023/04/22 00:48:26;;;;;;;;;;;;;;;12.45;74.28;99205.00;1085354;54;19946;-76
2023/04/22 00:49:30;;;;;;;;;;;;;;;12.46;73.73;99206.69;1085778;54;19946;-76
2023/04/22 00:50:31;;;;;;;;;;;;;;;12.49;73.35;99209.00;1086193;46;19950;-76
2023/04/22 00:51:35;;;;;;;;;;;;;;;12.48;73.63;99205.50;1088122;39;20252;-76
2023/04/22 00:52:36;;;;;;;;;;;;;;;12.52;73.43;99203.28;1085655;54;19951;-77
2023/04/22 00:53:39;;;;;;;;;;;;;;;12.59;72.71;99198.88;1085747;54;19946;-78
2023/04/22 00:54:41;;;;;;;;;;;;;;;12.61;73.09;99209.44;1085790;54;19950;-76
2023/04/22 00:55:44;;;;;;;;;;;;;;;12.62;72.54;99206.56;1085977;54;19950;-76
2023/04/22 00:56:48;;;;;;;;;;;;;;;12.65;72.54;99202.69;1085476;54;19951;-76
2023/04/22 00:57:52;;;;;;;;;;;;;;;12.62;73.22;99206.56;1086556;39;20438;-77
2023/04/22 00:58:55;;;;;;;;;;;;;;;12.58;72.75;99210.59;1086405;54;19950;-76
2023/04/22 00:59:59;;;;;;;;;;;;;;;12.53;73.35;99209.47;1085700;54;19964;-77
2023/04/22 01:01:00;;;;;;;;;;;;;;;12.45;73.65;99203.16;1086034;46;19958;-76
2023/04/22 01:02:05;;;;;;;;;;;;;;;12.49;73.89;99200.94;1086666;46;19942;-77
2023/04/22 01:03:07;;;;;;;;;;;;;;;12.53;73.65;99217.50;1086303;54;19957;-76
2023/04/22 01:04:13;;;;;;;;;;;;;;;12.53;73.90;99212.16;1087490;46;19959;-76
2023/04/22 01:05:14;;;;;;;;;;;;;;;12.51;73.80;99215.00;1086716;54;19957;-77
2023/04/22 01:06:18;;;;;;;;;;;;;;;12.48;74.30;99210.00;1086593;54;19954;-76
2023/04/22 01:07:20;;;;;;;;;;;;;;;12.40;75.30;99218.09;1086830;54;19943;-76
2023/04/22 01:08:26;;;;;;;;;;;;;;;12.31;75.52;99218.16;1086835;54;19951;-76
2023/04/22 01:09:27;;;;;;;;;;;;;;;12.21;76.25;99212.16;1086898;54;19965;-76
2023/04/22 01:10:31;;;;;;;;;;;;;;;12.15;76.94;99218.25;1086993;54;19950;-76
2023/04/22 01:11:32;;;;;;;;;;;;;;;12.13;76.71;99207.72;1087846;46;19946;-75
2023/04/22 01:12:39;;;;;;;;;;;;;;;12.15;76.10;99207.53;1086856;47;20356;-78
2023/04/22 01:13:40;;;;;;;;;;;;;;;12.19;76.13;99206.16;1086316;54;19946;-77
2023/04/22 01:14:44;;;;;;;;;;;;;;;12.21;75.87;99203.31;1086537;54;19983;-76
2023/04/22 01:15:45;;;;;;;;;;;;;;;12.17;75.87;99205.50;1086441;54;19950;-76
2023/04/22 01:16:49;;;;;;;;;;;;;;;12.11;76.38;99207.03;1086481;47;20328;-75
2023/04/22 01:17:52;;;;;;;;;;;;;;;12.08;76.52;99211.94;1086709;54;19950;-75
2023/04/22 01:18:55;;;;;;;;;;;;;;;12.08;76.20;99203.88;1086680;54;19942;-75
2023/04/22 01:19:57;;;;;;;;;;;;;;;12.07;76.37;99213.75;1086491;54;19946;-75
2023/04/22 01:21:01;;;;;;;;;;;;;;;12.18;75.94;99204.50;1086666;46;19939;-77
2023/04/22 01:22:02;;;;;;;;;;;;;;;12.25;74.98;99205.47;1086448;54;19950;-76
2023/04/22 01:23:10;;;;;;;;;;;;;;;12.31;75.00;99209.28;1086592;54;19955;-75
2023/04/22 01:24:14;;;;;;;;;;;;;;;12.37;74.60;99213.09;1086231;54;19951;-76
2023/04/22 01:25:18;;;;;;;;;;;;;;;12.40;74.12;99204.69;1086382;54;20024;-78
2023/04/22 01:26:19;;;;;;;;;;;;;;;12.42;74.18;99210.72;1086509;54;19976;-76
2023/04/22 01:27:23;;;;;;;;;;;;;;;12.38;74.83;99215.59;1086221;54;19963;-76
2023/04/22 01:28:24;;;;;;;;;;;;;;;12.32;74.92;99209.09;1086471;54;19943;-76
2023/04/22 01:29:28;;;;;;;;;;;;;;;12.31;75.36;99210.09;1086579;54;19998;-74
2023/04/22 01:30:30;;;;;;;;;;;;;;;12.28;74.92;99215.81;1086165;54;19947;-75
2023/04/22 01:31:34;;;;;;;;;;;;;;;12.23;75.38;99215.50;1086573;47;19953;-76
2023/04/22 01:32:35;;;;;;;;;;;;;;;12.22;75.40;99213.03;1086351;54;19957;-76
2023/04/22 01:33:39;;;;;;;;;;;;;;;12.22;75.49;99221.06;1086576;54;19943;-75
2023/04/22 01:34:40;;;;;;;;;;;;;;;12.19;75.79;99216.88;1086348;54;19942;-75
2023/04/22 01:35:44;;;;;;;;;;;;;;;12.22;75.79;99213.84;1086376;54;19951;-75
2023/04/22 01:36:45;;;;;;;;;;;;;;;12.28;75.10;99213.13;1087062;46;19950;-75
2023/04/22 01:37:49;;;;;;;;;;;;;;;12.35;74.69;99215.13;1086829;54;19953;-75
2023/04/22 01:38:50;;;;;;;;;;;;;;;12.38;74.30;99214.75;1087050;54;19951;-74
2023/04/22 01:39:57;;;;;;;;;;;;;;;12.39;74.45;99211.91;1087547;39;20254;-76
2023/04/22 01:40:58;;;;;;;;;;;;;;;12.43;74.11;99215.88;1085604;54;19947;-76
2023/04/22 01:42:04;;;;;;;;;;;;;;;12.45;74.09;99210.38;1085599;54;19950;-76
2023/04/22 01:43:05;;;;;;;;;;;;;;;12.41;74.53;99201.00;1084759;54;20776;-80
2023/04/22 01:44:09;;;;;;;;;;;;;;;12.40;74.44;99210.06;1084736;54;19950;-80
2023/04/22 01:45:12;;;;;;;;;;;;;;;12.40;74.64;99215.41;1084411;54;20041;-80
2023/04/22 01:46:18;;;;;;;;;;;;;;;12.41;74.01;99214.41;1084446;54;20006;-80
2023/04/22 01:47:19;;;;;;;;;;;;;;;12.42;74.15;99210.72;1084397;54;19951;-79
2023/04/22 01:48:22;;;;;;;;;;;;;;;12.43;74.10;99207.03;1083861;54;20002;-80
2023/04/22 01:49:24;;;;;;;;;;;;;;;12.43;74.35;99213.22;1083664;47;19951;-83
2023/04/22 01:50:27;;;;;;;;;;;;;;;12.44;74.07;99214.06;1083742;54;19946;-81
2023/04/22 01:51:29;;;;;;;;;;;;;;;12.45;74.00;99208.50;1084001;39;20468;-79
2023/04/22 01:52:32;;;;;;;;;;;;;;;12.47;74.07;99208.31;1083459;54;20817;-80
2023/04/22 01:53:35;;;;;;;;;;;;;;;12.49;74.05;99211.66;1083689;54;19981;-81
2023/04/22 01:54:38;;;;;;;;;;;;;;;12.50;73.96;99210.66;1083640;54;20478;-79
2023/04/22 01:55:42;;;;;;;;;;;;;;;12.50;73.67;99207.16;1083615;54;19957;-80
2023/04/22 01:56:50;;;;;;;;;;;;;;;12.50;73.62;99205.31;1083713;54;19947;-78
2023/04/22 01:57:52;;;;;;;;;;;;;;;12.46;73.87;99206.69;1084092;54;19957;-80
2023/04/22 01:58:55;;;;;;;;;;;;;;;12.47;74.14;99205.66;1084230;39;20546;-79
2023/04/22 01:59:57;;;;;;;;;;;;;;;12.49;73.86;99206.31;1083771;54;19947;-80
2023/04/22 02:01:01;;;;;;;;;;;;;;;12.50;73.89;99212.53;1084002;54;19950;-76
2023/04/22 02:02:02;;;;;;;;;;;;;;;12.51;73.89;99215.00;1084526;54;19957;-78
2023/04/22 02:03:06;;;;;;;;;;;;;;;12.52;73.72;99222.03;1084621;54;19966;-76
2023/04/22 02:04:07;;;;;;;;;;;;;;;12.53;73.80;99212.16;1084605;54;19950;-77
2023/04/22 02:05:11;;;;;;;;;;;;;;;12.53;73.52;99223.72;1084710;54;19946;-77
2023/04/22 02:06:12;;;;;;;;;;;;;;;12.51;73.61;99211.50;1084806;54;19957;-77
2023/04/22 02:07:16;;;;;;;;;;;;;;;12.51;73.77;99208.84;1084782;54;19950;-78
2023/04/22 02:08:17;;;;;;;;;;;;;;;12.45;74.29;99221.09;1085114;46;20458;-77
2023/04/22 02:09:21;;;;;;;;;;;;;;;12.44;74.45;99214.06;1085229;39;20415;-77
2023/04/22 02:10:23;;;;;;;;;;;;;;;12.40;74.47;99223.47;1084863;54;19946;-77
2023/04/22 02:11:29;;;;;;;;;;;;;;;12.40;74.37;99227.00;1084903;54;20025;-77
2023/04/22 02:12:31;;;;;;;;;;;;;;;12.38;74.46;99220.13;1085473;54;19946;-77
2023/04/22 02:13:37;;;;;;;;;;;;;;;12.39;74.47;99221.78;1084754;54;20002;-77
2023/04/22 02:14:39;;;;;;;;;;;;;;;12.40;74.21;99218.09;1085083;39;20199;-77
2023/04/22 02:15:42;;;;;;;;;;;;;;;12.40;74.34;99218.09;1084691;54;19947;-77
2023/04/22 02:16:44;;;;;;;;;;;;;;;12.36;74.46;99222.97;1084908;54;19979;-77
2023/04/22 02:17:48;;;;;;;;;;;;;;;12.35;74.59;99225.84;1084687;54;19951;-77
2023/04/22 02:18:49;;;;;;;;;;;;;;;12.36;74.62;99219.47;1084486;39;20311;-77
2023/04/22 02:19:52;;;;;;;;;;;;;;;12.37;74.35;99221.97;1084885;46;19947;-77
2023/04/22 02:20:54;;;;;;;;;;;;;;;12.36;74.47;99224.84;1084146;54;19950;-77
2023/04/22 02:21:57;;;;;;;;;;;;;;;12.35;74.87;99225.84;1084094;54;19981;-77
2023/04/22 02:22:59;;;;;;;;;;;;;;;12.36;74.59;99231.03;1084148;54;19951;-77
2023/04/22 02:24:02;;;;;;;;;;;;;;;12.36;74.52;99231.03;1084360;46;19946;-77
2023/04/22 02:25:04;;;;;;;;;;;;;;;12.37;74.50;99231.88;1084195;54;19969;-78
2023/04/22 02:26:08;;;;;;;;;;;;;;;12.38;74.18;99226.31;1084151;54;19950;-77
2023/04/22 02:27:13;;;;;;;;;;;;;;;12.37;74.14;99234.56;1084722;54;19969;-77
2023/04/22 02:28:17;;;;;;;;;;;;;;;12.39;74.03;99236.03;1085137;54;20494;-79
2023/04/22 02:29:18;;;;;;;;;;;;;;;12.41;74.18;99231.34;1084124;46;19951;-78
2023/04/22 02:30:23;;;;;;;;;;;;;;;12.41;74.00;99223.31;1084474;54;19954;-77
2023/04/22 02:31:24;;;;;;;;;;;;;;;12.43;73.68;99228.47;1084602;54;19946;-78
2023/04/22 02:32:28;;;;;;;;;;;;;;;12.43;73.77;99231.16;1085087;54;20014;-75
2023/04/22 02:33:29;;;;;;;;;;;;;;;12.43;73.61;99231.16;1085069;54;19950;-77
2023/04/22 02:34:33;;;;;;;;;;;;;;;12.44;73.57;99238.19;1085328;54;19953;-78
2023/04/22 02:35:35;;;;;;;;;;;;;;;12.46;73.70;99237.00;1087588;54;19950;-76
2023/04/22 02:36:38;;;;;;;;;;;;;;;12.47;73.63;99235.97;1088264;54;19953;-78
2023/04/22 02:37:43;;;;;;;;;;;;;;;12.49;73.78;99230.44;1088109;54;19946;-77
2023/04/22 02:38:47;;;;;;;;;;;;;;;12.43;74.31;99241.88;1089037;47;19954;-75
2023/04/22 02:39:53;;;;;;;;;;;;;;;12.30;74.92;99240.59;1087624;54;19939;-76
2023/04/22 02:40:57;;;;;;;;;;;;;;;12.24;75.41;99241.31;1088094;46;19942;-76
2023/04/22 02:41:58;;;;;;;;;;;;;;;12.22;75.76;99248.69;1086635;47;19945;-77
2023/04/22 02:43:05;;;;;;;;;;;;;;;12.20;75.60;99239.97;1085732;54;19950;-77
2023/04/22 02:44:06;;;;;;;;;;;;;;;12.19;75.43;99238.31;1084504;54;19946;-77
2023/04/22 02:45:10;;;;;;;;;;;;;;;12.19;75.47;99240.97;1084846;54;19954;-78
2023/04/22 02:46:12;;;;;;;;;;;;;;;12.22;75.26;99239.81;1084345;54;19953;-77
2023/04/22 02:47:15;;;;;;;;;;;;;;;12.22;75.16;99242.50;1084450;54;19969;-77
2023/04/22 02:48:16;;;;;;;;;;;;;;;12.18;75.33;99236.66;1086970;39;20765;-77
2023/04/22 02:49:21;;;;;;;;;;;;;;;12.16;75.71;99239.50;1085470;54;19962;-78
2023/04/22 02:50:22;;;;;;;;;;;;;;;12.16;75.60;99238.66;1085312;54;19942;-79
2023/04/22 02:51:26;;;;;;;;;;;;;;;12.13;75.95;99241.69;1085165;54;19987;-78
2023/04/22 02:52:27;;;;;;;;;;;;;;;12.10;76.34;99247.38;1085303;54;19947;-77
2023/04/22 02:53:32;;;;;;;;;;;;;;;12.04;76.28;99245.41;1085603;46;19998;-78
2023/04/22 02:54:33;;;;;;;;;;;;;;;12.02;76.50;99245.59;1086075;31;20446;-82
2023/04/22 02:55:41;;;;;;;;;;;;;;;12.00;76.48;99248.44;1086699;54;19989;-77
2023/04/22 02:56:42;;;;;;;;;;;;;;;12.05;76.08;99242.56;1086274;54;19942;-78
2023/04/22 02:57:46;;;;;;;;;;;;;;;12.06;75.78;99236.19;1086232;54;19950;-78
2023/04/22 02:58:50;;;;;;;;;;;;;;;12.02;76.33;99241.06;1086802;54;19953;-79
2023/04/22 03:00:03;;;;;;;;;;;;;;;11.99;76.33;99241.44;1086810;54;19946;-80
2023/04/22 03:01:04;;;;;;;;;;;;;;;11.97;76.71;99232.72;1086946;47;19958;-78
2023/04/22 03:02:14;;;;;;;;;;;;;;;12.00;76.40;99234.22;1087513;47;19958;-82
2023/04/22 03:03:15;;;;;;;;;;;;;;;12.06;75.72;99232.69;1087093;54;19942;-80
2023/04/22 03:04:20;;;;;;;;;;;;;;;12.09;75.66;99227.00;1086522;54;19967;-80
2023/04/22 03:05:21;;;;;;;;;;;;;;;12.11;75.67;99235.66;1086951;47;19972;-77
2023/04/22 03:06:29;;;;;;;;;;;;;;;12.11;75.79;99231.16;1085961;54;19950;-81
2023/04/22 03:07:31;;;;;;;;;;;;;;;12.15;75.68;99237.00;1086580;47;19950;-76
2023/04/22 03:08:34;;;;;;;;;;;;;;;12.17;75.29;99241.16;1086327;54;19958;-83
2023/04/22 03:09:35;;;;;;;;;;;;;;;12.18;75.31;99239.34;1086696;54;19935;-77
2023/04/22 03:10:41;;;;;;;;;;;;;;;12.18;75.18;99242.00;1087460;47;19950;-77
2023/04/22 03:11:42;;;;;;;;;;;;;;;12.18;75.51;99239.34;1087272;54;19946;-77
2023/04/22 03:12:47;;;;;;;;;;;;;;;12.18;75.57;99244.69;1087152;46;20025;-76
2023/04/22 03:13:50;;;;;;;;;;;;;;;12.18;75.66;99239.34;1086886;54;19950;-79
2023/04/22 03:14:54;;;;;;;;;;;;;;;12.19;75.54;99243.66;1086847;47;20011;-82
2023/04/22 03:15:55;;;;;;;;;;;;;;;12.17;75.41;99245.69;1086956;54;19951;-78
2023/04/22 03:17:06;;;;;;;;;;;;;;;12.14;75.71;99243.38;1086997;54;19945;-79
2023/04/22 03:18:07;;;;;;;;;;;;;;;12.15;75.45;99243.19;1087249;54;19938;-77
2023/04/22 03:19:13;;;;;;;;;;;;;;;12.12;75.56;99242.69;1087245;46;19947;-77
2023/04/22 03:20:15;;;;;;;;;;;;;;;12.10;75.57;99242.03;1087373;39;20097;-80
2023/04/22 03:21:19;;;;;;;;;;;;;;;12.11;75.37;99241.88;1086704;54;19955;-78
2023/04/22 03:22:20;;;;;;;;;;;;;;;12.12;75.05;99243.56;1086471;46;19946;-78
2023/04/22 03:23:23;;;;;;;;;;;;;;;12.13;75.09;99241.69;1088320;39;20208;-78
2023/04/22 03:24:25;;;;;;;;;;;;;;;12.13;74.86;99234.50;1087249;46;19943;-79
2023/04/22 03:25:28;;;;;;;;;;;;;;;12.14;75.34;99232.66;1086843;54;20065;-78
2023/04/22 03:26:29;;;;;;;;;;;;;;;12.13;74.85;99241.69;1086836;54;19974;-79
2023/04/22 03:27:33;;;;;;;;;;;;;;;12.12;75.10;99232.84;1086510;54;19950;-76
2023/04/22 03:28:35;;;;;;;;;;;;;;;12.10;75.35;99245.56;1086820;54;19946;-79
2023/04/22 03:29:41;;;;;;;;;;;;;;;12.06;75.81;99241.53;1086944;46;19943;-78
2023/04/22 03:30:42;;;;;;;;;;;;;;;12.06;75.30;99248.75;1087698;46;19954;-79
2023/04/22 03:31:46;;;;;;;;;;;;;;;12.06;75.28;99243.41;1086800;54;19995;-80
2023/04/22 03:32:47;;;;;;;;;;;;;;;12.05;75.01;99241.72;1086917;54;19950;-81
2023/04/22 03:33:50;;;;;;;;;;;;;;;12.04;75.39;99242.72;1086866;54;19991;-78
2023/04/22 03:34:53;;;;;;;;;;;;;;;12.01;75.16;99247.44;1087265;46;19942;-77
2023/04/22 03:35:56;;;;;;;;;;;;;;;12.01;75.46;99247.44;1087009;54;20594;-80
2023/04/22 03:37:00;;;;;;;;;;;;;;;12.00;75.08;99243.06;1086640;54;19994;-78
2023/04/22 03:38:02;;;;;;;;;;;;;;;11.99;75.08;99246.78;1086833;54;19950;-78
2023/04/22 03:39:07;;;;;;;;;;;;;;;12.00;75.38;99245.75;1086901;54;19938;-76
2023/04/22 03:40:09;;;;;;;;;;;;;;;11.99;75.14;99248.63;1086657;54;19938;-79
2023/04/22 03:41:12;;;;;;;;;;;;;;;11.99;75.32;99260.19;1086721;54;19955;-78
2023/04/22 03:42:14;;;;;;;;;;;;;;;11.99;75.09;99249.47;1087093;46;19947;-76
2023/04/22 03:43:17;;;;;;;;;;;;;;;11.97;75.35;99246.13;1087460;39;20371;-77
2023/04/22 03:44:19;;;;;;;;;;;;;;;11.97;75.27;99250.59;1086743;54;19954;-77
2023/04/22 03:45:26;;;;;;;;;;;;;;;11.96;75.26;99248.91;1086545;54;19950;-77
2023/04/22 03:46:27;;;;;;;;;;;;;;;11.93;75.07;99244.75;1086236;47;19943;-80
2023/04/22 03:47:31;;;;;;;;;;;;;;;11.88;75.57;99249.81;1085250;54;19995;-77
2023/04/22 03:48:34;;;;;;;;;;;;;;;11.90;75.24;99249.63;1084986;54;19957;-77
2023/04/22 03:49:38;;;;;;;;;;;;;;;11.88;75.25;99251.63;1084645;54;20354;-77
2023/04/22 03:50:39;;;;;;;;;;;;;;;11.88;75.23;99247.13;1085132;54;19958;-75
2023/04/22 03:51:43;;;;;;;;;;;;;;;11.89;75.09;99246.13;1084383;54;19947;-76
2023/04/22 03:52:44;;;;;;;;;;;;;;;11.86;75.47;99241.94;1084815;54;20430;-79
2023/04/22 03:53:48;;;;;;;;;;;;;;;11.83;75.58;99241.44;1084910;39;20301;-79
2023/04/22 03:54:49;;;;;;;;;;;;;;;11.80;75.86;99239.94;1084691;54;19975;-76
2023/04/22 03:55:53;;;;;;;;;;;;;;;11.79;76.04;99234.78;1084832;54;19951;-77
2023/04/22 03:56:54;;;;;;;;;;;;;;;11.73;76.47;99233.63;1084955;54;19951;-79
2023/04/22 03:57:58;;;;;;;;;;;;;;;11.68;76.48;99231.47;1084813;54;19950;-78
2023/04/22 03:58:59;;;;;;;;;;;;;;;11.61;77.18;99230.47;1084856;54;19946;-79
2023/04/22 04:00:03;;;;;;;;;;;;;;;11.53;77.36;99228.66;1084715;54;19947;-78
2023/04/22 04:01:07;;;;;;;;;;;;;;;11.51;77.72;99230.66;1085418;31;20470;-77
2023/04/22 04:02:10;;;;;;;;;;;;;;;11.50;77.73;99231.66;1084623;54;19984;-76
2023/04/22 04:03:12;;;;;;;;;;;;;;;11.48;78.23;99227.50;1084843;54;19947;-77
2023/04/22 04:04:15;;;;;;;;;;;;;;;11.49;77.77;99235.34;1085310;46;20443;-78
2023/04/22 04:05:17;;;;;;;;;;;;;;;11.52;77.37;99236.84;1084903;54;19947;-77
2023/04/22 04:06:20;;;;;;;;;;;;;;;11.56;76.95;99232.81;1084714;54;19958;-78
2023/04/22 04:07:21;;;;;;;;;;;;;;;11.56;77.08;99246.19;1084936;54;19947;-78
2023/04/22 04:08:25;;;;;;;;;;;;;;;11.59;76.85;99248.53;1087516;31;20478;-78
2023/04/22 04:09:26;;;;;;;;;;;;;;;11.59;76.82;99243.19;1085545;54;19946;-77
2023/04/22 04:10:30;;;;;;;;;;;;;;;11.54;77.25;99250.88;1085006;54;19947;-77
2023/04/22 04:11:31;;;;;;;;;;;;;;;11.55;77.18;99249.88;1084386;54;19958;-77
2023/04/22 04:12:35;;;;;;;;;;;;;;;11.58;76.77;99252.22;1084630;54;19977;-77
2023/04/22 04:13:36;;;;;;;;;;;;;;;11.58;77.24;99251.38;1084098;54;19976;-78
2023/04/22 04:14:40;;;;;;;;;;;;;;;11.55;77.17;99247.22;1084614;54;19950;-78
2023/04/22 04:15:41;;;;;;;;;;;;;;;11.58;76.67;99241.53;1084880;54;21011;-76
2023/04/22 04:16:48;;;;;;;;;;;;;;;11.55;77.14;99244.53;1084398;54;20057;-77
2023/04/22 04:17:49;;;;;;;;;;;;;;;11.49;77.46;99234.50;1084738;54;19970;-76
2023/04/22 04:18:53;;;;;;;;;;;;;;;11.48;77.10;99238.19;1084883;54;19959;-76
2023/04/22 04:19:54;;;;;;;;;;;;;;;11.48;76.96;99235.53;1084989;54;19950;-77
2023/04/22 04:20:58;;;;;;;;;;;;;;;11.47;76.97;99229.34;1085076;54;19954;-76
2023/04/22 04:21:59;;;;;;;;;;;;;;;11.49;76.98;99237.19;1085158;54;19950;-77
2023/04/22 04:23:03;;;;;;;;;;;;;;;11.50;76.76;99237.00;1085008;54;19962;-77
2023/04/22 04:24:04;;;;;;;;;;;;;;;11.49;76.98;99229.97;1085282;54;19947;-77
2023/04/22 04:25:09;;;;;;;;;;;;;;;11.51;76.67;99235.19;1085529;39;20452;-79
2023/04/22 04:26:10;;;;;;;;;;;;;;;11.51;76.77;99237.88;1085659;46;19993;-77
2023/04/22 04:27:14;;;;;;;;;;;;;;;11.51;76.66;99233.31;1084370;54;20656;-77
2023/04/22 04:28:16;;;;;;;;;;;;;;;11.52;76.42;99234.19;1084656;54;19976;-78
2023/04/22 04:29:23;;;;;;;;;;;;;;;11.54;76.43;99237.50;1084897;54;19957;-77
2023/04/22 04:30:24;;;;;;;;;;;;;;;11.52;76.34;99234.19;1084050;54;19946;-76
2023/04/22 04:31:28;;;;;;;;;;;;;;;11.53;76.25;99230.47;1084873;54;20002;-77
2023/04/22 04:32:33;;;;;;;;;;;;;;;11.54;76.59;99229.47;1084888;54;19950;-77
2023/04/22 04:33:36;;;;;;;;;;;;;;;11.52;76.34;99231.50;1084684;54;19950;-77
2023/04/22 04:34:38;;;;;;;;;;;;;;;11.48;76.50;99231.00;1086557;46;20537;-79
2023/04/22 04:35:42;;;;;;;;;;;;;;;11.46;76.63;99233.03;1085587;54;20815;-79
2023/04/22 04:36:45;;;;;;;;;;;;;;;11.45;76.97;99235.84;1086118;46;19950;-79
2023/04/22 04:37:49;;;;;;;;;;;;;;;11.43;76.65;99228.00;1086095;54;20015;-78
2023/04/22 04:38:51;;;;;;;;;;;;;;;11.37;77.39;99234.88;1086141;54;19968;-77
2023/04/22 04:39:58;;;;;;;;;;;;;;;11.38;77.36;99235.72;1085709;54;19946;-78
2023/04/22 04:40:59;;;;;;;;;;;;;;;11.38;76.92;99239.22;1085724;54;19958;-78
2023/04/22 04:43:25;;;;;;;;;;;;;;;11.36;76.82;99225.16;1086044;54;20583;-78
2023/04/22 04:44:27;;;;;;;;;;;;;;;11.37;76.94;99226.00;1085391;54;19951;-77
2023/04/22 04:45:31;;;;;;;;;;;;;;;11.39;76.83;99221.31;1085248;54;20797;-78
2023/04/22 04:46:33;;;;;;;;;;;;;;;11.37;76.51;99234.03;1086121;54;19957;-78
2023/04/22 04:47:39;;;;;;;;;;;;;;;11.34;76.93;99229.84;1086305;54;19951;-78
2023/04/22 04:48:41;;;;;;;;;;;;;;;11.35;76.69;99226.16;1085590;54;19949;-78
2023/04/22 04:49:46;;;;;;;;;;;;;;;11.37;76.99;99232.19;1085358;54;19943;-79
2023/04/22 04:50:49;;;;;;;;;;;;;;;11.41;76.67;99229.19;1085931;54;19973;-78
2023/04/22 04:51:56;;;;;;;;;;;;;;;11.42;76.71;99223.66;1086506;46;19951;-77
2023/04/22 04:53:07;;;;;;;;;;;;;;;11.45;76.45;99230.50;1086525;54;19948;-77
2023/04/22 04:54:30;;;;;;;;;;;;;;;11.42;76.83;99236.22;1085892;54;19954;-77
2023/04/22 04:55:33;;;;;;;;;;;;;;;11.44;76.50;99228.81;1085818;54;19950;-78
2023/04/22 04:56:46;;;;;;;;;;;;;;;11.44;76.50;99236.84;1085955;54;19965;-78
2023/04/22 04:57:50;;;;;;;;;;;;;;;11.46;76.58;99229.50;1086151;54;19950;-78
2023/04/22 04:58:51;;;;;;;;;;;;;;;11.47;76.34;99228.50;1085552;54;19947;-78
2023/04/22 05:01:12;;;;;;;;;;;;;;;11.50;75.98;99234.34;1086185;54;19943;-78
2023/04/22 05:02:13;;;;;;;;;;;;;;;11.53;76.26;99227.78;1086163;46;20339;-78
2023/04/22 05:03:20;;;;;;;;;;;;;;;11.52;76.23;99224.28;1085882;54;19950;-78
2023/04/22 05:04:21;;;;;;;;;;;;;;;11.54;75.79;99224.13;1086110;54;19942;-78
2023/04/22 05:05:25;;;;;;;;;;;;;;;11.54;76.05;99229.47;1086102;54;19953;-79
2023/04/22 05:06:26;;;;;;;;;;;;;;;11.51;75.72;99219.94;1086193;54;19976;-78
2023/04/22 05:07:30;;;;;;;;;;;;;;;11.51;76.36;99230.66;1086130;54;19950;-77
2023/04/22 05:08:31;;;;;;;;;;;;;;;11.50;76.11;99222.81;1086369;54;19943;-78
2023/04/22 05:09:36;;;;;;;;;;;;;;;11.50;76.01;99222.81;1086353;54;19969;-77
2023/04/22 05:10:38;;;;;;;;;;;;;;;11.50;76.22;99225.47;1086519;54;19957;-78
2023/04/22 05:11:41;;;;;;;;;;;;;;;11.50;76.23;99223.63;1086458;54;19949;-78
2023/04/22 05:12:45;;;;;;;;;;;;;;;11.49;76.05;99227.31;1086416;54;19973;-78
2023/04/22 05:13:49;;;;;;;;;;;;;;;11.43;76.34;99227.19;1085956;54;19958;-79
2023/04/22 05:14:50;;;;;;;;;;;;;;;11.38;77.06;99228.50;1086521;54;19950;-78
2023/04/22 05:15:54;;;;;;;;;;;;;;;11.38;77.02;99225.00;1086668;54;19951;-77
2023/04/22 05:16:55;;;;;;;;;;;;;;;11.40;76.99;99233.69;1086523;54;19949;-77
2023/04/22 05:17:59;;;;;;;;;;;;;;;11.43;76.87;99229.84;1086397;54;19949;-77
2023/04/22 05:19:03;;;;;;;;;;;;;;;11.46;76.65;99233.03;1085832;54;19943;-78
2023/04/22 05:20:07;;;;;;;;;;;;;;;11.47;76.61;99231.16;1087293;39;20433;-77
2023/04/22 05:21:08;;;;;;;;;;;;;;;11.46;76.95;99240.19;1086541;54;19939;-78
2023/04/22 05:22:12;;;;;;;;;;;;;;;11.43;77.15;99240.56;1086521;54;20736;-78
2023/04/22 05:23:13;;;;;;;;;;;;;;;11.41;77.32;99239.88;1087433;46;19949;-78
2023/04/22 05:24:17;;;;;;;;;;;;;;;11.42;77.17;99231.69;1086601;54;19942;-78
2023/04/22 05:25:18;;;;;;;;;;;;;;;11.43;77.03;99240.56;1086887;54;19950;-78
2023/04/22 05:26:22;;;;;;;;;;;;;;;11.40;76.78;99233.69;1089769;39;20193;-78
2023/04/22 05:27:23;;;;;;;;;;;;;;;11.41;76.55;99235.34;1086808;54;19939;-78
2023/04/22 05:28:27;;;;;;;;;;;;;;;11.39;76.89;99235.53;1086797;54;19938;-79
2023/04/22 05:29:28;;;;;;;;;;;;;;;11.42;76.72;99236.22;1087062;46;19945;-77
2023/04/22 05:31:34;;;;;;;;;;;;;;;11.41;76.85;99231.84;1091638;31;20684;-79
2023/04/22 05:32:35;;;;;;;;;;;;;;;11.43;76.63;99224.50;1085372;54;19946;-82